createdAt,value
2022-08-30T00:00:20.850Z,96495.69
2022-08-30T00:02:47.590Z,96499.63
2022-08-30T00:05:17.101Z,96494.22
2022-08-30T00:07:43.827Z,96488.44
2022-08-30T00:10:10.799Z,96484.28
2022-08-30T00:12:37.563Z,96486.56
2022-08-30T00:15:07.079Z,96487.38
2022-08-30T00:17:36.230Z,96482.00
2022-08-30T00:20:06.354Z,96488.22
2022-08-30T00:22:33.231Z,96485.34
2022-08-30T00:25:01.132Z,96497.94
2022-08-30T00:27:28.640Z,96492.16
2022-08-30T00:29:56.691Z,96491.31
2022-08-30T00:32:23.954Z,96497.56
2022-08-30T00:34:52.491Z,96490.28
2022-08-30T00:37:19.764Z,96495.03
2022-08-30T00:39:46.831Z,96485.72
2022-08-30T00:42:15.705Z,96488.63
2022-08-30T00:44:42.806Z,96484.88
2022-08-30T00:47:10.162Z,96491.50
2022-08-30T00:49:39.968Z,96483.66
2022-08-30T00:52:07.575Z,96485.69
2022-08-30T00:54:37.151Z,96483.19
2022-08-30T00:57:04.639Z,96486.31
2022-08-30T00:59:32.071Z,96485.25
2022-08-30T01:01:59.325Z,96478.63
2022-08-30T01:04:27.154Z,96484.44
2022-08-30T01:06:54.350Z,96477.50
2022-08-30T01:09:21.406Z,96472.72
2022-08-30T01:11:48.821Z,96480.97
2022-08-30T01:14:17.330Z,96480.91
2022-08-30T01:16:46.372Z,96478.84
2022-08-30T01:19:45.262Z,96473.06
2022-08-30T01:22:18.862Z,96476.00
2022-08-30T01:24:48.630Z,96475.31
2022-08-30T01:27:16.760Z,96478.38
2022-08-30T01:29:45.094Z,96477.56
2022-08-30T01:32:21.350Z,96484.19
2022-08-30T01:34:49.017Z,96479.44
2022-08-30T01:37:18.612Z,96475.47
2022-08-30T01:39:46.902Z,96481.03
2022-08-30T01:42:18.122Z,96479.81
2022-08-30T01:44:46.734Z,96477.16
2022-08-30T01:47:13.906Z,96469.75
2022-08-30T01:49:41.805Z,96466.19
2022-08-30T01:52:08.964Z,96475.69
2022-08-30T01:54:39.060Z,96474.66
2022-08-30T01:57:08.666Z,96477.16
2022-08-30T01:59:36.074Z,96478.78
2022-08-30T02:02:04.321Z,96478.78
2022-08-30T02:04:32.573Z,96476.50
2022-08-30T02:06:59.477Z,96479.19
2022-08-30T02:09:26.148Z,96479.41
2022-08-30T02:11:52.865Z,96480.06
2022-08-30T02:14:21.072Z,96474.50
2022-08-30T02:16:48.543Z,96468.91
2022-08-30T02:19:15.519Z,96469.56
2022-08-30T02:21:42.261Z,96473.72
2022-08-30T02:24:09.001Z,96466.66
2022-08-30T02:26:36.777Z,96472.88
2022-08-30T02:29:05.926Z,96467.69
2022-08-30T02:31:33.396Z,96467.69
2022-08-30T02:34:00.235Z,96466.88
2022-08-30T02:36:27.052Z,96470.38
2022-08-30T02:38:54.263Z,96464.19
2022-08-30T02:41:23.472Z,96462.31
2022-08-30T02:43:50.880Z,96465.00
2022-08-30T02:46:18.573Z,96467.06
2022-08-30T02:48:45.340Z,96466.41
2022-08-30T02:51:14.436Z,96463.91
2022-08-30T02:53:43.785Z,96464.72
2022-08-30T02:56:12.193Z,96471.75
2022-08-30T02:58:40.098Z,96471.75
2022-08-30T03:01:07.036Z,96470.28
2022-08-30T03:03:34.054Z,96471.50
2022-08-30T03:06:00.886Z,96474.59
2022-08-30T03:08:27.572Z,96466.09
2022-08-30T03:10:54.243Z,96462.78
2022-08-30T03:13:21.228Z,96458.84
2022-08-30T03:15:50.509Z,96460.69
2022-08-30T03:18:21.524Z,96458.16
2022-08-30T03:20:54.118Z,96460.81
2022-08-30T03:23:22.148Z,96456.03
2022-08-30T03:25:49.043Z,96454.13
2022-08-30T03:28:16.042Z,96448.13
2022-08-30T03:30:42.760Z,96453.50
2022-08-30T03:33:09.490Z,96447.94
2022-08-30T03:35:38.230Z,96447.22
2022-08-30T03:38:05.937Z,96452.28
2022-08-30T03:40:32.700Z,96454.97
2022-08-30T03:42:59.453Z,96466.91
2022-08-30T03:45:26.478Z,96453.47
2022-08-30T03:47:53.201Z,96456.63
2022-08-30T03:50:19.928Z,96455.22
2022-08-30T03:52:46.641Z,96453.94
2022-08-30T03:55:13.485Z,96452.63
2022-08-30T03:57:43.699Z,96450.25
2022-08-30T04:00:11.378Z,96449.88
2022-08-30T04:02:38.160Z,96451.72
2022-08-30T04:05:05.663Z,96448.81
2022-08-30T04:07:32.347Z,96445.72
2022-08-30T04:09:59.050Z,96454.59
2022-08-30T04:12:25.752Z,96446.78
2022-08-30T04:14:52.916Z,96455.25
2022-08-30T04:17:19.860Z,96449.94
2022-08-30T04:19:46.633Z,96460.47
2022-08-30T04:22:13.318Z,96468.94
2022-08-30T04:24:41.713Z,96465.03
2022-08-30T04:27:08.840Z,96469.78
2022-08-30T04:29:35.733Z,96472.03
2022-08-30T04:32:02.734Z,96475.72
2022-08-30T04:34:29.563Z,96477.34
2022-08-30T04:36:56.331Z,96487.47
2022-08-30T04:39:24.179Z,96478.13
2022-08-30T04:41:50.889Z,96486.69
2022-08-30T04:44:19.078Z,96485.41
2022-08-30T04:46:46.506Z,96496.94
2022-08-30T04:49:13.365Z,96496.75
2022-08-30T04:51:40.082Z,96494.25
2022-08-30T04:54:06.876Z,96498.84
2022-08-30T04:56:33.812Z,96499.69
2022-08-30T04:59:00.729Z,96502.53
2022-08-30T05:01:30.378Z,96502.44
2022-08-30T05:03:57.681Z,96509.97
2022-08-30T05:06:28.547Z,96502.53
2022-08-30T05:08:55.904Z,96509.16
2022-08-30T05:11:23.097Z,96509.63
2022-08-30T05:13:50.280Z,96509.44
2022-08-30T05:16:19.544Z,96512.56
2022-08-30T05:18:48.254Z,96522.72
2022-08-30T05:21:18.776Z,96520.97
2022-08-30T05:23:46.235Z,96517.88
2022-08-30T05:26:26.296Z,96519.81
2022-08-30T05:28:53.244Z,96528.09
2022-08-30T05:31:26.645Z,96524.84
2022-08-30T05:33:54.743Z,96518.84
2022-08-30T05:36:25.063Z,96524.81
2022-08-30T05:38:51.930Z,96521.50
2022-08-30T05:41:20.887Z,96526.66
2022-08-30T05:43:48.706Z,96527.19
2022-08-30T05:46:19.861Z,96533.44
2022-08-30T05:48:47.593Z,96536.31
2022-08-30T05:51:18.328Z,96530.09
2022-08-30T05:53:46.607Z,96538.13
2022-08-30T05:56:16.049Z,96532.56
2022-08-30T05:58:43.686Z,96534.22
2022-08-30T06:01:44.503Z,96536.50
2022-08-30T06:04:12.806Z,96537.59
2022-08-30T06:06:41.949Z,96538.44
2022-08-30T06:09:11.015Z,96541.28
2022-08-30T06:11:37.921Z,96534.63
2022-08-30T06:14:05.548Z,96544.72
2022-08-30T06:16:32.933Z,96540.91
2022-08-30T06:19:00.449Z,96539.59
2022-08-30T06:21:30.708Z,96542.75
2022-08-30T06:23:58.319Z,96542.81
2022-08-30T06:26:26.868Z,96542.66
2022-08-30T06:28:54.056Z,96545.50
2022-08-30T06:31:23.290Z,96546.38
2022-08-30T06:33:51.188Z,96541.41
2022-08-30T06:36:21.211Z,96546.09
2022-08-30T06:38:52.232Z,96540.09
2022-08-30T06:41:22.564Z,96540.41
2022-08-30T06:43:49.602Z,96546.59
2022-08-30T06:46:20.348Z,96547.56
2022-08-30T06:48:48.432Z,96548.81
2022-08-30T06:51:15.762Z,96545.28
2022-08-30T06:53:42.955Z,96543.84
2022-08-30T06:56:16.583Z,96546.72
2022-08-30T06:58:44.635Z,96536.56
2022-08-30T07:01:22.099Z,96534.88
2022-08-30T07:03:49.315Z,96536.44
2022-08-30T07:06:16.267Z,96537.97
2022-08-30T07:08:46.290Z,96532.56
2022-08-30T07:11:13.183Z,96538.81
2022-08-30T07:13:39.976Z,96538.63
2022-08-30T07:16:11.931Z,96535.22
2022-08-30T07:18:51.284Z,96540.28
2022-08-30T07:21:24.982Z,96538.91
2022-08-30T07:23:53.758Z,96533.44
2022-08-30T07:26:42.529Z,96525.06
2022-08-30T07:29:09.662Z,96521.97
2022-08-30T07:31:36.523Z,96526.69
2022-08-30T07:34:07.353Z,96531.97
2022-08-30T07:36:36.246Z,96533.19
2022-08-30T07:39:04.338Z,96531.31
2022-08-30T07:41:35.804Z,96530.69
2022-08-30T07:44:02.809Z,96526.22
2022-08-30T07:46:30.116Z,96532.59
2022-08-30T07:48:58.693Z,96534.25
2022-08-30T07:51:27.657Z,96521.69
2022-08-30T07:53:55.660Z,96527.28
2022-08-30T07:56:24.699Z,96523.16
2022-08-30T07:58:51.936Z,96523.38
2022-08-30T08:01:19.598Z,96514.78
2022-08-30T08:03:47.991Z,96511.97
2022-08-30T08:06:16.671Z,96518.66
2022-08-30T08:08:45.497Z,96508.56
2022-08-30T08:11:22.339Z,96516.38
2022-08-30T08:13:53.926Z,96513.66
2022-08-30T08:16:26.169Z,96508.88
2022-08-30T08:18:54.073Z,96516.94
2022-08-30T08:21:22.600Z,96509.59
2022-08-30T08:23:49.567Z,96507.81
2022-08-30T08:26:16.315Z,96511.50
2022-08-30T08:28:45.045Z,96507.41
2022-08-30T08:31:21.252Z,96510.38
2022-08-30T08:33:50.767Z,96510.06
2022-08-30T08:36:18.641Z,96508.69
2022-08-30T08:38:45.696Z,96498.78
2022-08-30T08:41:32.280Z,96498.31
2022-08-30T08:43:59.544Z,96501.56
2022-08-30T08:46:36.437Z,96509.38
2022-08-30T08:49:06.964Z,96500.56
2022-08-30T08:51:57.466Z,96497.91
2022-08-30T08:54:59.308Z,96500.06
2022-08-30T08:57:31.883Z,96491.16
2022-08-30T08:59:58.738Z,96507.16
2022-08-30T09:02:28.634Z,96498.91
2022-08-30T09:04:59.956Z,96492.00
2022-08-30T09:07:30.676Z,96495.84
2022-08-30T09:10:00.700Z,96492.88
2022-08-30T09:12:28.266Z,96482.91
2022-08-30T09:15:01.533Z,96488.91
2022-08-30T09:17:28.693Z,96474.16
2022-08-30T09:19:55.802Z,96478.50
2022-08-30T09:22:30.652Z,96476.88
2022-08-30T09:25:09.067Z,96470.34
2022-08-30T09:27:41.276Z,96467.31
2022-08-30T09:30:17.643Z,96476.22
2022-08-30T09:32:59.270Z,96466.69
2022-08-30T09:35:50.052Z,96462.53
2022-08-30T09:38:29.095Z,96465.31
2022-08-30T09:40:59.044Z,96465.44
2022-08-30T09:43:31.843Z,96460.53
2022-08-30T09:46:01.652Z,96459.06
2022-08-30T09:48:40.548Z,96455.94
2022-08-30T09:51:10.428Z,96460.97
2022-08-30T09:54:07.148Z,96455.50
2022-08-30T09:57:04.673Z,96452.69
2022-08-30T10:00:04.881Z,96452.19
2022-08-30T10:02:58.105Z,96445.59
2022-08-30T10:05:36.225Z,96445.22
2022-08-30T10:08:14.916Z,96440.78
2022-08-30T10:10:51.272Z,96436.88
2022-08-30T10:13:29.996Z,96441.03
2022-08-30T10:16:03.151Z,96433.94
2022-08-30T10:19:04.204Z,96437.72
2022-08-30T10:21:43.749Z,96427.47
2022-08-30T10:24:20.731Z,96428.88
2022-08-30T10:26:55.677Z,96424.25
2022-08-30T10:29:31.699Z,96419.38
2022-08-30T10:32:10.791Z,96418.28
2022-08-30T10:34:49.206Z,96413.66
2022-08-30T10:37:21.992Z,96412.22
2022-08-30T10:39:56.291Z,96415.22
2022-08-30T10:42:34.626Z,96408.47
2022-08-30T10:45:07.116Z,96401.44
2022-08-30T10:47:39.755Z,96397.69
2022-08-30T10:50:11.039Z,96390.56
2022-08-30T10:52:58.217Z,96399.97
2022-08-30T10:55:30.911Z,96392.19
2022-08-30T10:58:03.485Z,96393.63
2022-08-30T11:00:50.241Z,96397.78
2022-08-30T11:03:53.232Z,96399.44
2022-08-30T11:07:09.814Z,96389.34
2022-08-30T11:10:00.378Z,96389.59
2022-08-30T11:13:02.545Z,96389.34
2022-08-30T11:15:37.822Z,96382.75
2022-08-30T11:18:14.837Z,96396.41
2022-08-30T11:20:45.983Z,96389.78
2022-08-30T11:23:18.847Z,96384.06
2022-08-30T11:25:57.673Z,96376.72
2022-08-30T11:28:37.109Z,96374.28
2022-08-30T11:31:23.700Z,96379.22
2022-08-30T11:33:53.769Z,96378.53
2022-08-30T11:36:37.920Z,96371.19
2022-08-30T11:39:40.910Z,96367.28
2022-08-30T11:42:29.593Z,96365.53
2022-08-30T11:45:26.526Z,96363.09
2022-08-30T11:47:59.555Z,96360.22
2022-08-30T11:50:36.101Z,96361.66
2022-08-30T11:53:09.439Z,96365.78
2022-08-30T11:56:10.355Z,96368.19
2022-08-30T11:58:49.586Z,96357.47
2022-08-30T12:01:50.794Z,96347.06
2022-08-30T12:04:15.062Z,96352.00
2022-08-30T12:06:42.214Z,96347.84
2022-08-30T12:09:13.081Z,96349.13
2022-08-30T12:11:56.956Z,96343.59
2022-08-30T12:14:44.868Z,96334.31
2022-08-30T12:18:15.382Z,96335.69
2022-08-30T12:20:47.322Z,96335.56
2022-08-30T12:23:48.704Z,96331.22
2022-08-30T12:26:32.649Z,96337.13
2022-08-30T12:29:17.949Z,96324.56
2022-08-30T12:31:54.890Z,96316.38
2022-08-30T12:34:56.138Z,96312.25
2022-08-30T12:37:30.706Z,96320.09
2022-08-30T12:40:03.439Z,96303.88
2022-08-30T12:42:36.413Z,96297.53
2022-08-30T12:45:11.332Z,96298.34
2022-08-30T12:47:44.954Z,96298.16
2022-08-30T12:50:15.553Z,96303.13
2022-08-30T12:52:47.162Z,96289.47
2022-08-30T12:55:19.382Z,96295.25
2022-08-30T12:58:10.472Z,96298.31
2022-08-30T13:00:39.865Z,96297.25
2022-08-30T13:03:30.270Z,96292.25
2022-08-30T13:05:57.622Z,96279.97
2022-08-30T13:08:31.146Z,96286.66
2022-08-30T13:11:07.364Z,96286.41
2022-08-30T13:13:44.357Z,96267.81
2022-08-30T13:16:26.162Z,96269.16
2022-08-30T13:19:35.942Z,96281.44
2022-08-30T13:22:04.456Z,96282.78
2022-08-30T13:24:31.743Z,96276.84
2022-08-30T13:27:11.929Z,96277.88
2022-08-30T13:29:38.719Z,96266.38
2022-08-30T13:32:05.527Z,96262.00
2022-08-30T13:34:35.320Z,96258.69
2022-08-30T13:37:03.532Z,96260.94
2022-08-30T13:39:31.458Z,96261.81
2022-08-30T13:42:31.733Z,96262.13
2022-08-30T13:44:45.362Z,96261.47
2022-08-30T13:50:04.120Z,96254.63
2022-08-30T13:52:30.925Z,96257.34
2022-08-30T13:54:58.332Z,96254.75
2022-08-30T14:00:19.520Z,96262.47
2022-08-30T14:02:54.073Z,96256.50
2022-08-30T14:05:50.440Z,96246.94
2022-08-30T14:11:13.332Z,96251.50
2022-08-30T14:16:31.521Z,96246.44
2022-08-30T14:19:00.342Z,96239.31
2022-08-30T14:21:27.130Z,96245.78
2022-08-30T14:23:57.939Z,96240.34
2022-08-30T14:26:33.263Z,96244.72
2022-08-30T14:29:02.769Z,96234.34
2022-08-30T14:31:32.844Z,96238.09
2022-08-30T14:34:05.173Z,96232.13
2022-08-30T14:36:33.611Z,96232.13
2022-08-30T14:39:00.842Z,96231.22
2022-08-30T14:41:27.565Z,96231.03
2022-08-30T14:43:54.292Z,96235.84
2022-08-30T14:46:22.142Z,96229.66
2022-08-30T14:48:50.341Z,96233.75
2022-08-30T14:51:20.034Z,96230.94
2022-08-30T14:53:48.280Z,96226.44
2022-08-30T14:56:18.480Z,96230.97
2022-08-30T14:58:51.524Z,96229.63
2022-08-30T15:01:19.724Z,96225.41
2022-08-30T15:03:46.949Z,96226.53
2022-08-30T15:06:13.876Z,96230.53
2022-08-30T15:08:40.940Z,96223.47
2022-08-30T15:11:10.205Z,96225.72
2022-08-30T15:13:38.403Z,96234.03
2022-08-30T15:16:20.465Z,96235.03
2022-08-30T15:18:47.348Z,96228.69
2022-08-30T15:21:14.820Z,96228.25
2022-08-30T15:23:41.969Z,96233.06
2022-08-30T15:26:09.732Z,96225.69
2022-08-30T15:28:36.755Z,96222.13
2022-08-30T15:31:08.775Z,96226.50
2022-08-30T15:33:36.779Z,96224.03
2022-08-30T15:36:05.003Z,96228.63
2022-08-30T15:38:32.376Z,96221.13
2022-08-30T15:41:04.144Z,96225.00
2022-08-30T15:43:31.485Z,96221.19
2022-08-30T15:46:16.323Z,96222.59
2022-08-30T15:48:45.714Z,96217.63
2022-08-30T15:51:13.391Z,96214.16
2022-08-30T15:53:41.148Z,96216.91
2022-08-30T15:56:07.962Z,96209.25
2022-08-30T15:58:35.248Z,96211.63
2022-08-30T16:01:02.437Z,96227.81
2022-08-30T16:03:29.567Z,96220.03
2022-08-30T16:05:57.272Z,96225.69
2022-08-30T16:08:24.306Z,96225.06
2022-08-30T16:10:52.653Z,96226.81
2022-08-30T16:13:19.444Z,96225.34
2022-08-30T16:15:46.277Z,96221.75
2022-08-30T16:18:14.706Z,96223.53
2022-08-30T16:20:42.461Z,96220.63
2022-08-30T16:23:10.990Z,96222.06
2022-08-30T16:25:39.930Z,96223.81
2022-08-30T16:28:09.523Z,96224.88
2022-08-30T16:30:37.061Z,96222.06
2022-08-30T16:33:04.048Z,96225.28
2022-08-30T16:35:32.807Z,96213.59
2022-08-30T16:37:59.514Z,96226.59
2022-08-30T16:40:26.250Z,96219.78
2022-08-30T16:42:53.345Z,96222.66
2022-08-30T16:45:20.434Z,96223.66
2022-08-30T16:47:47.123Z,96223.25
2022-08-30T16:50:16.827Z,96221.75
2022-08-30T16:52:44.632Z,96224.06
2022-08-30T16:55:11.554Z,96225.50
2022-08-30T16:57:39.717Z,96226.94
2022-08-30T17:00:13.048Z,96224.38
2022-08-30T17:02:40.910Z,96219.44
2022-08-30T17:05:14.731Z,96225.59
2022-08-30T17:07:42.125Z,96227.88
2022-08-30T17:10:09.190Z,96234.28
2022-08-30T17:12:40.006Z,96237.38
2022-08-30T17:15:07.513Z,96236.94
2022-08-30T17:17:34.297Z,96236.28
2022-08-30T17:20:01.288Z,96233.91
2022-08-30T17:22:28.347Z,96242.53
2022-08-30T17:24:55.671Z,96240.53
2022-08-30T17:27:23.198Z,96240.66
2022-08-30T17:29:49.981Z,96243.25
2022-08-30T17:32:16.980Z,96252.44
2022-08-30T17:34:44.298Z,96259.31
2022-08-30T17:37:11.509Z,96266.03
2022-08-30T17:39:38.381Z,96272.97
2022-08-30T17:42:06.002Z,96278.03
2022-08-30T17:44:36.302Z,96272.00
2022-08-30T17:47:03.033Z,96277.22
2022-08-30T17:49:30.683Z,96279.78
2022-08-30T17:51:58.148Z,96277.56
2022-08-30T17:54:27.414Z,96287.44
2022-08-30T17:56:55.618Z,96292.50
2022-08-30T17:59:25.312Z,96295.69
2022-08-30T18:01:54.083Z,96306.94
2022-08-30T18:04:21.593Z,96303.50
2022-08-30T18:06:51.521Z,96295.25
2022-08-30T18:09:18.470Z,96303.22
2022-08-30T18:11:45.612Z,96309.94
2022-08-30T18:14:15.920Z,96307.94
2022-08-30T18:16:53.072Z,96301.31
2022-08-30T18:19:23.542Z,96308.25
2022-08-30T18:21:50.541Z,96313.53
2022-08-30T18:24:17.981Z,96323.63
2022-08-30T18:26:45.113Z,96329.69
2022-08-30T18:29:11.995Z,96332.81
2022-08-30T18:31:39.490Z,96336.72
2022-08-30T18:34:07.140Z,96341.00
2022-08-30T18:36:39.927Z,96336.53
2022-08-30T18:39:06.937Z,96340.84
2022-08-30T18:41:34.252Z,96344.97
2022-08-30T18:44:23.871Z,96347.47
2022-08-30T18:46:56.186Z,96350.63
2022-08-30T18:49:25.007Z,96355.81
2022-08-30T18:51:52.090Z,96352.53
2022-08-30T18:54:19.225Z,96356.03
2022-08-30T18:56:46.440Z,96357.31
2022-08-30T18:59:13.439Z,96355.47
2022-08-30T19:01:40.608Z,96365.44
2022-08-30T19:04:07.699Z,96361.69
2022-08-30T19:06:34.973Z,96363.34
2022-08-30T19:09:09.011Z,96367.91
2022-08-30T19:11:38.333Z,96361.06
2022-08-30T19:14:05.543Z,96363.41
2022-08-30T19:16:35.288Z,96361.31
2022-08-30T19:19:03.132Z,96365.66
2022-08-30T19:21:29.986Z,96354.63
2022-08-30T19:23:56.644Z,96361.91
2022-08-30T19:26:23.332Z,96364.63
2022-08-30T19:28:54.215Z,96361.31
2022-08-30T19:31:21.016Z,96358.38
2022-08-30T19:33:47.746Z,96356.28
2022-08-30T19:36:14.501Z,96361.69
2022-08-30T19:38:44.418Z,96367.09
2022-08-30T19:41:12.763Z,96360.50
2022-08-30T19:43:40.981Z,96362.16
2022-08-30T19:46:08.379Z,96353.41
2022-08-30T19:48:39.006Z,96365.06
2022-08-30T19:51:13.840Z,96373.41
2022-08-30T19:53:42.468Z,96376.94
2022-08-30T19:56:09.213Z,96377.19
2022-08-30T19:58:36.239Z,96374.31
2022-08-30T20:01:10.838Z,96387.22
2022-08-30T20:03:39.894Z,96387.47
2022-08-30T20:06:07.462Z,96391.66
2022-08-30T20:08:34.750Z,96384.81
2022-08-30T20:11:01.591Z,96387.75
2022-08-30T20:13:28.444Z,96393.63
2022-08-30T20:15:57.826Z,96395.50
2022-08-30T20:18:26.351Z,96390.31
2022-08-30T20:20:53.642Z,96389.03
2022-08-30T20:23:20.690Z,96388.66
2022-08-30T20:25:55.113Z,96390.78
2022-08-30T20:28:22.402Z,96386.00
2022-08-30T20:30:49.492Z,96384.78
2022-08-30T20:33:17.514Z,96381.09
2022-08-30T20:35:48.977Z,96379.25
2022-08-30T20:38:21.841Z,96385.69
2022-08-30T20:40:52.767Z,96379.31
2022-08-30T20:43:22.478Z,96379.72
2022-08-30T20:45:49.545Z,96377.25
2022-08-30T20:48:17.622Z,96379.38
2022-08-30T20:50:44.639Z,96366.69
2022-08-30T20:53:11.543Z,96367.94
2022-08-30T20:55:46.379Z,96355.69
2022-08-30T20:58:14.416Z,96363.22
2022-08-30T21:00:45.887Z,96369.44
2022-08-30T21:03:26.439Z,96359.09
2022-08-30T21:05:55.288Z,96364.94
2022-08-30T21:08:21.994Z,96358.53
2022-08-30T21:10:48.761Z,96363.56
2022-08-30T21:13:15.554Z,96362.13
2022-08-30T21:15:46.072Z,96367.78
2022-08-30T21:18:14.354Z,96360.09
2022-08-30T21:20:42.007Z,96359.28
2022-08-30T21:23:09.091Z,96357.03
2022-08-30T21:25:39.241Z,96366.63
2022-08-30T21:28:07.065Z,96370.19
2022-08-30T21:30:34.989Z,96369.78
2022-08-30T21:33:06.402Z,96368.16
2022-08-30T21:35:52.432Z,96366.94
2022-08-30T21:38:20.115Z,96368.00
2022-08-30T21:40:48.671Z,96370.06
2022-08-30T21:43:16.254Z,96368.00
2022-08-30T21:45:44.561Z,96360.47
2022-08-30T21:48:12.983Z,96354.03
2022-08-30T21:50:42.052Z,96366.50
2022-08-30T21:53:09.264Z,96366.09
2022-08-30T21:55:35.990Z,96371.13
2022-08-30T21:58:03.751Z,96362.41
2022-08-30T22:00:31.836Z,96367.81
2022-08-30T22:02:58.643Z,96363.31
2022-08-30T22:05:25.608Z,96366.44
2022-08-30T22:07:52.304Z,96357.75
2022-08-30T22:10:21.197Z,96360.44
2022-08-30T22:12:48.542Z,96355.44
2022-08-30T22:15:15.672Z,96367.09
2022-08-30T22:17:43.766Z,96360.47
2022-08-30T22:20:12.028Z,96370.84
2022-08-30T22:22:45.165Z,96369.84
2022-08-30T22:25:11.952Z,96363.47
2022-08-30T22:27:38.596Z,96364.50
2022-08-30T22:30:05.855Z,96371.97
2022-08-30T22:32:32.555Z,96359.13
2022-08-30T22:34:59.266Z,96364.97
2022-08-30T22:37:26.033Z,96370.78
2022-08-30T22:39:52.762Z,96367.50
2022-08-30T22:42:19.495Z,96372.50
2022-08-30T22:44:46.174Z,96370.22
2022-08-30T22:47:12.807Z,96369.41
2022-08-30T22:49:39.579Z,96369.41
2022-08-30T22:52:06.815Z,96366.09
2022-08-30T22:54:33.579Z,96366.09
2022-08-30T22:57:00.340Z,96358.81
2022-08-30T22:59:31.528Z,96361.50
2022-08-30T23:02:23.867Z,96359.44
2022-08-30T23:04:50.605Z,96354.03
2022-08-30T23:07:17.357Z,96350.72
2022-08-30T23:09:44.041Z,96348.13
2022-08-30T23:12:10.938Z,96351.22
2022-08-30T23:14:37.796Z,96350.41
2022-08-30T23:17:04.633Z,96349.41
2022-08-30T23:19:31.330Z,96347.97
2022-08-30T23:21:58.134Z,96349.44
2022-08-30T23:24:48.822Z,96348.22
2022-08-30T23:27:34.737Z,96349.28
2022-08-30T23:30:19.986Z,96343.91
2022-08-30T23:33:05.086Z,96346.41
2022-08-30T23:35:50.503Z,96336.47
2022-08-30T23:38:36.164Z,96343.94
2022-08-30T23:41:21.548Z,96350.16
2022-08-30T23:44:07.118Z,96348.91
2022-08-30T23:46:52.480Z,96346.22
2022-08-30T23:49:37.934Z,96345.59
2022-08-30T23:52:23.611Z,96359.28
2022-08-30T23:55:09.001Z,96356.00
2022-08-30T23:57:54.380Z,96351.03
